sensor_id;sensor_type;location;lat;lon;timestamp;P1;durP1;ratioP1;P2;durP2;ratioP2
62509;SDS011;48558;48.242;11.654;2023-08-21T00:02:25;14.25;;;6.20;;
62509;SDS011;48558;48.242;11.654;2023-08-21T00:06:40;9.55;;;6.18;;
62509;SDS011;48558;48.242;11.654;2023-08-21T00:10:52;8.95;;;5.72;;
62509;SDS011;48558;48.242;11.654;2023-08-21T00:15:05;8.68;;;5.88;;
62509;SDS011;48558;48.242;11.654;2023-08-21T00:19:18;7.40;;;6.13;;
62509;SDS011;48558;48.242;11.654;2023-08-21T00:23:30;7.25;;;6.20;;
62509;SDS011;48558;48.242;11.654;2023-08-21T00:27:43;8.60;;;5.60;;
62509;SDS011;48558;48.242;11.654;2023-08-21T00:31:56;11.95;;;5.95;;
62509;SDS011;48558;48.242;11.654;2023-08-21T00:36:09;7.50;;;6.80;;
62509;SDS011;48558;48.242;11.654;2023-08-21T00:40:21;11.35;;;6.65;;
62509;SDS011;48558;48.242;11.654;2023-08-21T00:44:34;8.23;;;6.57;;
62509;SDS011;48558;48.242;11.654;2023-08-21T00:48:47;9.15;;;6.65;;
62509;SDS011;48558;48.242;11.654;2023-08-21T00:52:59;10.20;;;7.03;;
62509;SDS011;48558;48.242;11.654;2023-08-21T00:57:13;7.20;;;6.50;;
62509;SDS011;48558;48.242;11.654;2023-08-21T01:01:26;7.35;;;6.68;;
62509;SDS011;48558;48.242;11.654;2023-08-21T01:05:41;7.43;;;6.55;;
62509;SDS011;48558;48.242;11.654;2023-08-21T01:10:05;6.72;;;6.13;;
62509;SDS011;48558;48.242;11.654;2023-08-21T01:19:24;7.72;;;6.85;;
62509;SDS011;48558;48.242;11.654;2023-08-21T01:23:44;13.77;;;7.15;;
62509;SDS011;48558;48.242;11.654;2023-08-21T01:27:56;8.93;;;7.30;;
62509;SDS011;48558;48.242;11.654;2023-08-21T01:36:55;9.18;;;7.50;;
62509;SDS011;48558;48.242;11.654;2023-08-21T01:41:08;11.90;;;7.28;;
62509;SDS011;48558;48.242;11.654;2023-08-21T01:45:21;8.98;;;7.03;;
62509;SDS011;48558;48.242;11.654;2023-08-21T01:49:34;8.23;;;7.18;;
62509;SDS011;48558;48.242;11.654;2023-08-21T01:53:47;8.57;;;7.25;;
62509;SDS011;48558;48.242;11.654;2023-08-21T01:57:59;10.35;;;7.35;;
62509;SDS011;48558;48.242;11.654;2023-08-21T02:02:12;7.90;;;7.15;;
62509;SDS011;48558;48.242;11.654;2023-08-21T02:06:25;7.88;;;7.07;;
62509;SDS011;48558;48.242;11.654;2023-08-21T02:10:37;7.40;;;6.70;;
62509;SDS011;48558;48.242;11.654;2023-08-21T02:14:50;8.20;;;6.93;;
62509;SDS011;48558;48.242;11.654;2023-08-21T02:19:02;7.60;;;6.90;;
62509;SDS011;48558;48.242;11.654;2023-08-21T02:23:15;14.10;;;7.22;;
62509;SDS011;48558;48.242;11.654;2023-08-21T02:27:28;8.20;;;6.93;;
62509;SDS011;48558;48.242;11.654;2023-08-21T02:31:41;13.80;;;6.72;;
62509;SDS011;48558;48.242;11.654;2023-08-21T02:35:53;6.97;;;6.38;;
62509;SDS011;48558;48.242;11.654;2023-08-21T02:40:06;7.32;;;6.63;;
62509;SDS011;48558;48.242;11.654;2023-08-21T02:44:21;7.70;;;6.57;;
62509;SDS011;48558;48.242;11.654;2023-08-21T02:48:34;7.43;;;6.63;;
62509;SDS011;48558;48.242;11.654;2023-08-21T02:52:47;7.13;;;6.43;;
62509;SDS011;48558;48.242;11.654;2023-08-21T02:57:00;7.70;;;6.88;;
62509;SDS011;48558;48.242;11.654;2023-08-21T03:01:13;7.80;;;7.00;;
62509;SDS011;48558;48.242;11.654;2023-08-21T03:05:26;7.40;;;6.70;;
62509;SDS011;48558;48.242;11.654;2023-08-21T03:09:39;7.45;;;6.75;;
62509;SDS011;48558;48.242;11.654;2023-08-21T03:13:52;7.22;;;6.53;;
62509;SDS011;48558;48.242;11.654;2023-08-21T03:18:05;12.82;;;6.95;;
62509;SDS011;48558;48.242;11.654;2023-08-21T03:22:17;7.43;;;6.53;;
62509;SDS011;48558;48.242;11.654;2023-08-21T03:26:30;9.30;;;6.70;;
62509;SDS011;48558;48.242;11.654;2023-08-21T03:30:42;8.25;;;6.28;;
62509;SDS011;48558;48.242;11.654;2023-08-21T03:34:55;8.70;;;7.03;;
62509;SDS011;48558;48.242;11.654;2023-08-21T03:39:08;9.07;;;7.28;;
62509;SDS011;48558;48.242;11.654;2023-08-21T03:43:21;7.97;;;7.13;;
62509;SDS011;48558;48.242;11.654;2023-08-21T03:47:33;7.25;;;6.63;;
62509;SDS011;48558;48.242;11.654;2023-08-21T03:51:46;8.43;;;6.75;;
62509;SDS011;48558;48.242;11.654;2023-08-21T03:55:58;8.85;;;6.28;;
62509;SDS011;48558;48.242;11.654;2023-08-21T04:00:11;7.20;;;6.50;;
62509;SDS011;48558;48.242;11.654;2023-08-21T04:04:24;10.25;;;7.28;;
62509;SDS011;48558;48.242;11.654;2023-08-21T04:08:37;12.02;;;6.72;;
62509;SDS011;48558;48.242;11.654;2023-08-21T04:12:49;8.85;;;6.65;;
62509;SDS011;48558;48.242;11.654;2023-08-21T04:17:02;10.13;;;7.07;;
62509;SDS011;48558;48.242;11.654;2023-08-21T04:21:15;9.13;;;6.78;;
62509;SDS011;48558;48.242;11.654;2023-08-21T04:25:28;8.35;;;7.00;;
62509;SDS011;48558;48.242;11.654;2023-08-21T04:29:40;9.93;;;6.60;;
62509;SDS011;48558;48.242;11.654;2023-08-21T04:33:53;10.38;;;7.72;;
62509;SDS011;48558;48.242;11.654;2023-08-21T04:38:05;7.57;;;6.88;;
62509;SDS011;48558;48.242;11.654;2023-08-21T04:42:19;7.20;;;6.50;;
62509;SDS011;48558;48.242;11.654;2023-08-21T04:46:33;8.00;;;7.22;;
62509;SDS011;48558;48.242;11.654;2023-08-21T04:50:46;8.40;;;7.22;;
62509;SDS011;48558;48.242;11.654;2023-08-21T04:55:03;10.18;;;7.20;;
62509;SDS011;48558;48.242;11.654;2023-08-21T04:59:16;8.65;;;7.30;;
62509;SDS011;48558;48.242;11.654;2023-08-21T05:03:29;8.77;;;7.50;;
62509;SDS011;48558;48.242;11.654;2023-08-21T05:07:41;8.85;;;7.82;;
62509;SDS011;48558;48.242;11.654;2023-08-21T05:11:54;8.48;;;7.28;;
62509;SDS011;48558;48.242;11.654;2023-08-21T05:16:07;7.85;;;7.05;;
62509;SDS011;48558;48.242;11.654;2023-08-21T05:20:21;9.13;;;7.65;;
62509;SDS011;48558;48.242;11.654;2023-08-21T05:24:33;9.18;;;8.15;;
62509;SDS011;48558;48.242;11.654;2023-08-21T05:28:46;9.88;;;7.13;;
62509;SDS011;48558;48.242;11.654;2023-08-21T05:32:59;9.60;;;7.25;;
62509;SDS011;48558;48.242;11.654;2023-08-21T05:37:12;13.63;;;8.18;;
62509;SDS011;48558;48.242;11.654;2023-08-21T05:41:25;9.27;;;8.00;;
62509;SDS011;48558;48.242;11.654;2023-08-21T05:45:37;11.65;;;7.70;;
62509;SDS011;48558;48.242;11.654;2023-08-21T05:49:51;9.38;;;8.23;;
62509;SDS011;48558;48.242;11.654;2023-08-21T05:54:04;10.98;;;8.52;;
62509;SDS011;48558;48.242;11.654;2023-08-21T05:58:17;8.65;;;7.60;;
62509;SDS011;48558;48.242;11.654;2023-08-21T06:02:30;13.07;;;8.57;;
62509;SDS011;48558;48.242;11.654;2023-08-21T06:06:42;10.15;;;7.85;;
62509;SDS011;48558;48.242;11.654;2023-08-21T06:10:55;12.10;;;8.60;;
62509;SDS011;48558;48.242;11.654;2023-08-21T06:15:07;10.02;;;8.68;;
62509;SDS011;48558;48.242;11.654;2023-08-21T06:19:21;14.35;;;8.65;;
62509;SDS011;48558;48.242;11.654;2023-08-21T06:23:33;9.52;;;7.93;;
62509;SDS011;48558;48.242;11.654;2023-08-21T06:27:46;10.35;;;7.57;;
62509;SDS011;48558;48.242;11.654;2023-08-21T06:32:09;7.35;;;6.55;;
62509;SDS011;48558;48.242;11.654;2023-08-21T06:36:21;7.65;;;6.95;;
62509;SDS011;48558;48.242;11.654;2023-08-21T06:40:34;9.07;;;6.53;;
62509;SDS011;48558;48.242;11.654;2023-08-21T06:44:47;7.50;;;6.05;;
62509;SDS011;48558;48.242;11.654;2023-08-21T06:49:00;9.98;;;6.10;;
62509;SDS011;48558;48.242;11.654;2023-08-21T06:53:12;10.07;;;6.55;;
62509;SDS011;48558;48.242;11.654;2023-08-21T06:57:25;8.30;;;5.78;;
62509;SDS011;48558;48.242;11.654;2023-08-21T07:01:38;7.72;;;6.07;;
62509;SDS011;48558;48.242;11.654;2023-08-21T07:05:54;8.27;;;6.22;;
62509;SDS011;48558;48.242;11.654;2023-08-21T07:10:11;7.50;;;5.80;;
62509;SDS011;48558;48.242;11.654;2023-08-21T07:14:24;10.40;;;6.20;;
62509;SDS011;48558;48.242;11.654;2023-08-21T07:18:38;7.82;;;6.22;;
62509;SDS011;48558;48.242;11.654;2023-08-21T07:22:50;8.18;;;5.85;;
62509;SDS011;48558;48.242;11.654;2023-08-21T07:27:03;6.40;;;5.80;;
62509;SDS011;48558;48.242;11.654;2023-08-21T07:31:16;9.30;;;5.78;;
62509;SDS011;48558;48.242;11.654;2023-08-21T07:35:28;12.38;;;6.38;;
62509;SDS011;48558;48.242;11.654;2023-08-21T07:39:41;6.57;;;5.97;;
62509;SDS011;48558;48.242;11.654;2023-08-21T07:43:54;7.18;;;6.35;;
62509;SDS011;48558;48.242;11.654;2023-08-21T07:48:06;9.68;;;6.20;;
62509;SDS011;48558;48.242;11.654;2023-08-21T07:52:25;7.18;;;5.93;;
62509;SDS011;48558;48.242;11.654;2023-08-21T07:56:38;11.32;;;6.43;;
62509;SDS011;48558;48.242;11.654;2023-08-21T08:00:52;7.05;;;6.10;;
62509;SDS011;48558;48.242;11.654;2023-08-21T08:05:05;6.88;;;6.18;;
62509;SDS011;48558;48.242;11.654;2023-08-21T08:09:18;9.50;;;6.55;;
62509;SDS011;48558;48.242;11.654;2023-08-21T08:13:32;6.88;;;6.10;;
62509;SDS011;48558;48.242;11.654;2023-08-21T08:17:45;15.07;;;5.82;;
62509;SDS011;48558;48.242;11.654;2023-08-21T08:21:57;5.93;;;5.32;;
62509;SDS011;48558;48.242;11.654;2023-08-21T08:26:11;6.50;;;4.85;;
62509;SDS011;48558;48.242;11.654;2023-08-21T08:30:24;4.90;;;4.50;;
62509;SDS011;48558;48.242;11.654;2023-08-21T08:34:37;5.55;;;5.05;;
62509;SDS011;48558;48.242;11.654;2023-08-21T08:38:51;5.38;;;4.60;;
62509;SDS011;48558;48.242;11.654;2023-08-21T08:43:04;5.25;;;4.70;;
62509;SDS011;48558;48.242;11.654;2023-08-21T08:47:17;9.07;;;4.47;;
62509;SDS011;48558;48.242;11.654;2023-08-21T08:51:32;6.63;;;4.70;;
62509;SDS011;48558;48.242;11.654;2023-08-21T08:55:48;5.88;;;4.70;;
62509;SDS011;48558;48.242;11.654;2023-08-21T09:00:02;5.88;;;4.93;;
62509;SDS011;48558;48.242;11.654;2023-08-21T09:04:16;4.30;;;4.00;;
62509;SDS011;48558;48.242;11.654;2023-08-21T09:08:31;5.03;;;4.63;;
62509;SDS011;48558;48.242;11.654;2023-08-21T09:12:45;4.60;;;4.20;;
62509;SDS011;48558;48.242;11.654;2023-08-21T09:16:59;4.70;;;4.30;;
62509;SDS011;48558;48.242;11.654;2023-08-21T09:25:34;4.22;;;3.92;;
62509;SDS011;48558;48.242;11.654;2023-08-21T09:29:49;5.15;;;4.30;;
62509;SDS011;48558;48.242;11.654;2023-08-21T09:34:03;5.10;;;4.57;;
62509;SDS011;48558;48.242;11.654;2023-08-21T09:38:17;6.32;;;4.57;;
62509;SDS011;48558;48.242;11.654;2023-08-21T09:42:31;4.85;;;4.45;;
62509;SDS011;48558;48.242;11.654;2023-08-21T09:46:46;3.92;;;3.70;;
62509;SDS011;48558;48.242;11.654;2023-08-21T09:51:03;4.18;;;3.88;;
62509;SDS011;48558;48.242;11.654;2023-08-21T09:55:16;7.65;;;3.70;;
62509;SDS011;48558;48.242;11.654;2023-08-21T09:59:31;4.28;;;3.83;;
62509;SDS011;48558;48.242;11.654;2023-08-21T10:03:44;5.25;;;3.88;;
62509;SDS011;48558;48.242;11.654;2023-08-21T10:08:02;4.35;;;3.80;;
62509;SDS011;48558;48.242;11.654;2023-08-21T10:12:18;3.50;;;3.20;;
62509;SDS011;48558;48.242;11.654;2023-08-21T10:16:35;3.92;;;3.55;;
62509;SDS011;48558;48.242;11.654;2023-08-21T10:20:50;3.63;;;3.42;;
62509;SDS011;48558;48.242;11.654;2023-08-21T10:25:09;3.30;;;3.00;;
62509;SDS011;48558;48.242;11.654;2023-08-21T10:34:12;5.88;;;3.20;;
62509;SDS011;48558;48.242;11.654;2023-08-21T10:38:26;4.25;;;3.58;;
62509;SDS011;48558;48.242;11.654;2023-08-21T10:42:39;3.35;;;3.13;;
62509;SDS011;48558;48.242;11.654;2023-08-21T10:46:54;3.33;;;3.10;;
62509;SDS011;48558;48.242;11.654;2023-08-21T10:51:37;3.17;;;2.97;;
62509;SDS011;48558;48.242;11.654;2023-08-21T10:55:54;3.13;;;2.92;;
62509;SDS011;48558;48.242;11.654;2023-08-21T11:00:09;2.88;;;2.78;;
62509;SDS011;48558;48.242;11.654;2023-08-21T11:04:27;3.17;;;2.97;;
62509;SDS011;48558;48.242;11.654;2023-08-21T11:08:40;3.55;;;3.25;;
62509;SDS011;48558;48.242;11.654;2023-08-21T11:12:54;4.03;;;3.17;;
62509;SDS011;48558;48.242;11.654;2023-08-21T11:17:09;3.60;;;3.30;;
62509;SDS011;48558;48.242;11.654;2023-08-21T11:21:23;3.60;;;3.17;;
62509;SDS011;48558;48.242;11.654;2023-08-21T11:25:38;3.40;;;3.20;;
62509;SDS011;48558;48.242;11.654;2023-08-21T11:29:52;3.15;;;2.95;;
62509;SDS011;48558;48.242;11.654;2023-08-21T11:34:05;5.22;;;3.28;;
62509;SDS011;48558;48.242;11.654;2023-08-21T11:38:34;3.50;;;3.15;;
62509;SDS011;48558;48.242;11.654;2023-08-21T11:42:47;4.82;;;3.50;;
62509;SDS011;48558;48.242;11.654;2023-08-21T11:47:04;3.53;;;3.22;;
62509;SDS011;48558;48.242;11.654;2023-08-21T11:51:17;8.20;;;3.17;;
62509;SDS011;48558;48.242;11.654;2023-08-21T11:55:31;5.40;;;3.33;;
62509;SDS011;48558;48.242;11.654;2023-08-21T11:59:54;5.95;;;3.10;;
62509;SDS011;48558;48.242;11.654;2023-08-21T12:04:14;3.55;;;3.10;;
62509;SDS011;48558;48.242;11.654;2023-08-21T12:08:27;4.00;;;3.13;;
62509;SDS011;48558;48.242;11.654;2023-08-21T12:12:41;4.35;;;2.60;;
62509;SDS011;48558;48.242;11.654;2023-08-21T12:16:54;4.45;;;2.80;;
62509;SDS011;48558;48.242;11.654;2023-08-21T12:21:08;6.78;;;3.40;;
62509;SDS011;48558;48.242;11.654;2023-08-21T12:25:23;5.88;;;3.10;;
62509;SDS011;48558;48.242;11.654;2023-08-21T12:29:36;4.00;;;3.70;;
62509;SDS011;48558;48.242;11.654;2023-08-21T12:33:49;3.40;;;3.20;;
62509;SDS011;48558;48.242;11.654;2023-08-21T12:38:10;7.28;;;3.28;;
62509;SDS011;48558;48.242;11.654;2023-08-21T12:42:24;4.10;;;3.38;;
62509;SDS011;48558;48.242;11.654;2023-08-21T12:46:37;4.63;;;3.17;;
62509;SDS011;48558;48.242;11.654;2023-08-21T12:50:51;4.55;;;3.63;;
62509;SDS011;48558;48.242;11.654;2023-08-21T12:55:04;3.80;;;3.17;;
62509;SDS011;48558;48.242;11.654;2023-08-21T12:59:18;4.10;;;3.28;;
62509;SDS011;48558;48.242;11.654;2023-08-21T13:03:32;3.70;;;3.40;;
62509;SDS011;48558;48.242;11.654;2023-08-21T13:07:46;3.47;;;3.17;;
62509;SDS011;48558;48.242;11.654;2023-08-21T13:11:59;3.50;;;3.20;;
62509;SDS011;48558;48.242;11.654;2023-08-21T13:16:12;3.95;;;3.30;;
62509;SDS011;48558;48.242;11.654;2023-08-21T13:20:25;3.75;;;3.45;;
62509;SDS011;48558;48.242;11.654;2023-08-21T13:24:38;8.38;;;3.72;;
62509;SDS011;48558;48.242;11.654;2023-08-21T13:28:52;4.10;;;3.45;;
62509;SDS011;48558;48.242;11.654;2023-08-21T13:33:06;7.07;;;3.90;;
62509;SDS011;48558;48.242;11.654;2023-08-21T13:37:20;3.80;;;3.50;;
62509;SDS011;48558;48.242;11.654;2023-08-21T13:41:35;3.53;;;3.22;;
62509;SDS011;48558;48.242;11.654;2023-08-21T13:45:47;3.78;;;3.45;;
62509;SDS011;48558;48.242;11.654;2023-08-21T13:50:00;5.28;;;3.40;;
62509;SDS011;48558;48.242;11.654;2023-08-21T13:54:13;4.75;;;3.40;;
62509;SDS011;48558;48.242;11.654;2023-08-21T13:58:27;3.97;;;3.58;;
62509;SDS011;48558;48.242;11.654;2023-08-21T14:02:40;3.95;;;3.65;;
62509;SDS011;48558;48.242;11.654;2023-08-21T14:06:54;5.25;;;4.10;;
62509;SDS011;48558;48.242;11.654;2023-08-21T14:11:07;4.20;;;3.80;;
62509;SDS011;48558;48.242;11.654;2023-08-21T14:15:20;5.40;;;4.00;;
62509;SDS011;48558;48.242;11.654;2023-08-21T14:19:33;6.28;;;4.20;;
62509;SDS011;48558;48.242;11.654;2023-08-21T14:23:47;4.47;;;3.80;;
62509;SDS011;48558;48.242;11.654;2023-08-21T14:28:00;4.00;;;3.70;;
62509;SDS011;48558;48.242;11.654;2023-08-21T14:32:13;4.95;;;3.50;;
62509;SDS011;48558;48.242;11.654;2023-08-21T14:36:27;7.95;;;3.70;;
62509;SDS011;48558;48.242;11.654;2023-08-21T14:40:40;3.75;;;3.45;;
62509;SDS011;48558;48.242;11.654;2023-08-21T14:44:53;3.97;;;3.67;;
62509;SDS011;48558;48.242;11.654;2023-08-21T14:49:07;4.10;;;3.78;;
62509;SDS011;48558;48.242;11.654;2023-08-21T14:53:20;3.67;;;3.47;;
62509;SDS011;48558;48.242;11.654;2023-08-21T14:57:37;4.40;;;3.50;;
62509;SDS011;48558;48.242;11.654;2023-08-21T15:01:50;4.47;;;3.20;;
62509;SDS011;48558;48.242;11.654;2023-08-21T15:06:04;5.95;;;3.58;;
62509;SDS011;48558;48.242;11.654;2023-08-21T15:10:18;5.68;;;3.40;;
62509;SDS011;48558;48.242;11.654;2023-08-21T15:14:31;4.53;;;3.30;;
62509;SDS011;48558;48.242;11.654;2023-08-21T15:18:45;4.53;;;3.17;;
62509;SDS011;48558;48.242;11.654;2023-08-21T15:23:04;3.72;;;3.30;;
62509;SDS011;48558;48.242;11.654;2023-08-21T15:27:17;3.90;;;3.58;;
62509;SDS011;48558;48.242;11.654;2023-08-21T15:31:31;3.67;;;3.38;;
62509;SDS011;48558;48.242;11.654;2023-08-21T15:35:44;3.75;;;3.47;;
62509;SDS011;48558;48.242;11.654;2023-08-21T15:39:57;7.70;;;3.85;;
62509;SDS011;48558;48.242;11.654;2023-08-21T15:44:11;4.30;;;3.90;;
62509;SDS011;48558;48.242;11.654;2023-08-21T15:48:24;6.80;;;3.90;;
62509;SDS011;48558;48.242;11.654;2023-08-21T15:52:38;3.90;;;3.47;;
62509;SDS011;48558;48.242;11.654;2023-08-21T15:56:51;4.40;;;3.47;;
62509;SDS011;48558;48.242;11.654;2023-08-21T16:01:05;17.02;;;4.22;;
62509;SDS011;48558;48.242;11.654;2023-08-21T16:05:19;6.75;;;3.80;;
62509;SDS011;48558;48.242;11.654;2023-08-21T16:09:34;6.82;;;3.70;;
62509;SDS011;48558;48.242;11.654;2023-08-21T16:13:47;4.00;;;3.67;;
62509;SDS011;48558;48.242;11.654;2023-08-21T16:18:01;4.22;;;3.83;;
62509;SDS011;48558;48.242;11.654;2023-08-21T16:22:14;4.10;;;3.80;;
62509;SDS011;48558;48.242;11.654;2023-08-21T16:26:28;6.82;;;3.90;;
62509;SDS011;48558;48.242;11.654;2023-08-21T16:30:41;8.90;;;3.55;;
62509;SDS011;48558;48.242;11.654;2023-08-21T16:34:54;6.60;;;3.95;;
62509;SDS011;48558;48.242;11.654;2023-08-21T16:39:08;4.22;;;3.75;;
62509;SDS011;48558;48.242;11.654;2023-08-21T16:43:21;4.78;;;3.65;;
62509;SDS011;48558;48.242;11.654;2023-08-21T16:47:34;4.43;;;3.75;;
62509;SDS011;48558;48.242;11.654;2023-08-21T16:51:48;6.45;;;3.70;;
62509;SDS011;48558;48.242;11.654;2023-08-21T16:56:01;5.32;;;3.70;;
62509;SDS011;48558;48.242;11.654;2023-08-21T17:00:14;6.07;;;3.60;;
62509;SDS011;48558;48.242;11.654;2023-08-21T17:04:28;4.30;;;3.63;;
62509;SDS011;48558;48.242;11.654;2023-08-21T17:08:41;5.90;;;3.63;;
62509;SDS011;48558;48.242;11.654;2023-08-21T17:12:54;5.32;;;3.97;;
62509;SDS011;48558;48.242;11.654;2023-08-21T17:17:07;4.97;;;4.00;;
62509;SDS011;48558;48.242;11.654;2023-08-21T17:21:21;4.00;;;3.60;;
62509;SDS011;48558;48.242;11.654;2023-08-21T17:25:34;7.80;;;3.80;;
62509;SDS011;48558;48.242;11.654;2023-08-21T17:29:48;4.25;;;3.88;;
62509;SDS011;48558;48.242;11.654;2023-08-21T17:34:03;6.32;;;4.45;;
62509;SDS011;48558;48.242;11.654;2023-08-21T17:38:19;6.43;;;4.20;;
62509;SDS011;48558;48.242;11.654;2023-08-21T17:42:32;4.20;;;3.80;;
62509;SDS011;48558;48.242;11.654;2023-08-21T17:46:45;4.10;;;3.80;;
62509;SDS011;48558;48.242;11.654;2023-08-21T17:51:05;7.05;;;4.30;;
62509;SDS011;48558;48.242;11.654;2023-08-21T17:55:18;4.40;;;4.00;;
62509;SDS011;48558;48.242;11.654;2023-08-21T17:59:31;4.70;;;4.20;;
62509;SDS011;48558;48.242;11.654;2023-08-21T18:03:44;7.85;;;4.43;;
62509;SDS011;48558;48.242;11.654;2023-08-21T18:07:57;6.93;;;4.72;;
62509;SDS011;48558;48.242;11.654;2023-08-21T18:12:11;6.13;;;4.57;;
62509;SDS011;48558;48.242;11.654;2023-08-21T18:16:25;4.95;;;4.22;;
62509;SDS011;48558;48.242;11.654;2023-08-21T18:20:47;8.95;;;4.95;;
62509;SDS011;48558;48.242;11.654;2023-08-21T18:25:05;8.32;;;5.25;;
62509;SDS011;48558;48.242;11.654;2023-08-21T18:29:19;7.35;;;4.35;;
62509;SDS011;48558;48.242;11.654;2023-08-21T18:33:35;4.85;;;4.35;;
62509;SDS011;48558;48.242;11.654;2023-08-21T18:37:48;5.97;;;4.97;;
62509;SDS011;48558;48.242;11.654;2023-08-21T18:42:01;4.80;;;4.43;;
62509;SDS011;48558;48.242;11.654;2023-08-21T18:46:13;4.70;;;4.30;;
62509;SDS011;48558;48.242;11.654;2023-08-21T18:50:33;5.25;;;4.82;;
62509;SDS011;48558;48.242;11.654;2023-08-21T18:54:48;5.57;;;4.88;;
62509;SDS011;48558;48.242;11.654;2023-08-21T18:59:01;4.75;;;4.35;;
62509;SDS011;48558;48.242;11.654;2023-08-21T19:03:13;4.90;;;4.50;;
62509;SDS011;48558;48.242;11.654;2023-08-21T19:07:26;9.40;;;5.43;;
62509;SDS011;48558;48.242;11.654;2023-08-21T19:11:39;6.07;;;5.47;;
62509;SDS011;48558;48.242;11.654;2023-08-21T19:15:52;5.78;;;5.15;;
62509;SDS011;48558;48.242;11.654;2023-08-21T19:20:05;7.15;;;4.80;;
62509;SDS011;48558;48.242;11.654;2023-08-21T19:24:22;7.85;;;5.15;;
62509;SDS011;48558;48.242;11.654;2023-08-21T19:28:34;8.38;;;4.72;;
62509;SDS011;48558;48.242;11.654;2023-08-21T19:32:47;8.20;;;4.88;;
62509;SDS011;48558;48.242;11.654;2023-08-21T19:37:03;5.30;;;4.90;;
62509;SDS011;48558;48.242;11.654;2023-08-21T19:41:17;7.10;;;5.25;;
62509;SDS011;48558;48.242;11.654;2023-08-21T19:45:30;9.15;;;5.43;;
62509;SDS011;48558;48.242;11.654;2023-08-21T19:49:42;8.38;;;5.70;;
62509;SDS011;48558;48.242;11.654;2023-08-21T19:53:55;5.82;;;5.32;;
62509;SDS011;48558;48.242;11.654;2023-08-21T19:58:08;5.00;;;4.63;;
62509;SDS011;48558;48.242;11.654;2023-08-21T20:02:20;7.35;;;5.50;;
62509;SDS011;48558;48.242;11.654;2023-08-21T20:06:33;7.15;;;5.40;;
62509;SDS011;48558;48.242;11.654;2023-08-21T20:10:45;5.47;;;4.93;;
62509;SDS011;48558;48.242;11.654;2023-08-21T20:14:58;11.18;;;5.13;;
62509;SDS011;48558;48.242;11.654;2023-08-21T20:19:13;8.90;;;5.30;;
62509;SDS011;48558;48.242;11.654;2023-08-21T20:23:26;8.40;;;5.90;;
62509;SDS011;48558;48.242;11.654;2023-08-21T20:27:38;8.32;;;6.13;;
62509;SDS011;48558;48.242;11.654;2023-08-21T20:31:51;10.18;;;5.90;;
62509;SDS011;48558;48.242;11.654;2023-08-21T20:36:04;6.22;;;5.50;;
62509;SDS011;48558;48.242;11.654;2023-08-21T20:40:17;7.45;;;5.63;;
62509;SDS011;48558;48.242;11.654;2023-08-21T20:44:29;7.22;;;5.90;;
62509;SDS011;48558;48.242;11.654;2023-08-21T20:48:42;9.75;;;5.65;;
62509;SDS011;48558;48.242;11.654;2023-08-21T20:52:55;6.30;;;5.70;;
62509;SDS011;48558;48.242;11.654;2023-08-21T20:57:07;8.32;;;5.78;;
62509;SDS011;48558;48.242;11.654;2023-08-21T21:01:20;6.72;;;5.80;;
62509;SDS011;48558;48.242;11.654;2023-08-21T21:05:32;7.78;;;5.85;;
62509;SDS011;48558;48.242;11.654;2023-08-21T21:09:46;9.95;;;6.28;;
62509;SDS011;48558;48.242;11.654;2023-08-21T21:13:58;9.95;;;5.88;;
62509;SDS011;48558;48.242;11.654;2023-08-21T21:18:11;5.88;;;5.18;;
62509;SDS011;48558;48.242;11.654;2023-08-21T21:22:24;5.78;;;5.28;;
62509;SDS011;48558;48.242;11.654;2023-08-21T21:26:37;8.95;;;6.00;;
62509;SDS011;48558;48.242;11.654;2023-08-21T21:30:56;6.70;;;5.30;;
62509;SDS011;48558;48.242;11.654;2023-08-21T21:35:10;10.20;;;5.78;;
62509;SDS011;48558;48.242;11.654;2023-08-21T21:39:22;5.72;;;5.18;;
62509;SDS011;48558;48.242;11.654;2023-08-21T21:43:35;7.72;;;5.55;;
62509;SDS011;48558;48.242;11.654;2023-08-21T21:47:48;8.52;;;5.10;;
62509;SDS011;48558;48.242;11.654;2023-08-21T21:52:02;6.57;;;5.32;;
62509;SDS011;48558;48.242;11.654;2023-08-21T21:56:15;6.63;;;5.28;;
62509;SDS011;48558;48.242;11.654;2023-08-21T22:00:28;9.95;;;5.47;;
62509;SDS011;48558;48.242;11.654;2023-08-21T22:04:42;7.25;;;5.15;;
62509;SDS011;48558;48.242;11.654;2023-08-21T22:08:55;5.75;;;5.25;;
62509;SDS011;48558;48.242;11.654;2023-08-21T22:13:07;8.43;;;5.60;;
62509;SDS011;48558;48.242;11.654;2023-08-21T22:17:20;15.13;;;5.68;;
62509;SDS011;48558;48.242;11.654;2023-08-21T22:21:33;7.38;;;5.85;;
62509;SDS011;48558;48.242;11.654;2023-08-21T22:25:45;5.57;;;5.07;;
62509;SDS011;48558;48.242;11.654;2023-08-21T22:29:58;10.02;;;5.75;;
62509;SDS011;48558;48.242;11.654;2023-08-21T22:34:10;10.27;;;5.53;;
62509;SDS011;48558;48.242;11.654;2023-08-21T22:38:23;7.55;;;5.25;;
62509;SDS011;48558;48.242;11.654;2023-08-21T22:42:36;9.48;;;5.63;;
62509;SDS011;48558;48.242;11.654;2023-08-21T22:46:49;7.82;;;5.45;;
62509;SDS011;48558;48.242;11.654;2023-08-21T22:51:04;8.13;;;5.05;;
62509;SDS011;48558;48.242;11.654;2023-08-21T22:55:18;7.85;;;5.25;;
62509;SDS011;48558;48.242;11.654;2023-08-21T22:59:30;6.45;;;5.90;;
62509;SDS011;48558;48.242;11.654;2023-08-21T23:03:43;5.63;;;5.00;;
62509;SDS011;48558;48.242;11.654;2023-08-21T23:07:56;7.75;;;5.40;;
62509;SDS011;48558;48.242;11.654;2023-08-21T23:12:08;8.13;;;6.10;;
62509;SDS011;48558;48.242;11.654;2023-08-21T23:16:23;6.70;;;5.97;;
62509;SDS011;48558;48.242;11.654;2023-08-21T23:20:36;11.85;;;5.50;;
62509;SDS011;48558;48.242;11.654;2023-08-21T23:24:49;7.97;;;5.60;;
62509;SDS011;48558;48.242;11.654;2023-08-21T23:29:05;7.25;;;5.50;;
62509;SDS011;48558;48.242;11.654;2023-08-21T23:33:18;6.57;;;5.60;;
62509;SDS011;48558;48.242;11.654;2023-08-21T23:37:31;8.95;;;6.32;;
62509;SDS011;48558;48.242;11.654;2023-08-21T23:41:44;8.20;;;5.50;;
62509;SDS011;48558;48.242;11.654;2023-08-21T23:45:57;8.60;;;5.68;;
62509;SDS011;48558;48.242;11.654;2023-08-21T23:50:09;10.38;;;6.00;;
62509;SDS011;48558;48.242;11.654;2023-08-21T23:54:22;7.53;;;6.15;;
62509;SDS011;48558;48.242;11.654;2023-08-21T23:58:35;7.47;;;6.38;;
